Time;durP1;ratioP1;P1;durP2;ratioP2;P2;SDS_P1;SDS_P2;PMS_P1;PMS_P2;Temp;Humidity;BMP_temperature;BMP_pressure;BME280_temperature;BME280_humidity;BME280_pressure;Samples;Min_cycle;Max_cycle;Signal;HPM_P1;HPM_P2
2023/01/05 00:02:24;;;;;;;252.15;123.38;;;1.70;99.90;;;;;;5041452;28;20039;-90
2023/01/05 00:04:50;;;;;;;254.93;124.32;;;1.60;99.90;;;;;;5041353;28;20040;-91
2023/01/05 00:07:16;;;;;;;285.13;135.40;;;1.50;99.90;;;;;;5041537;28;20028;-91
2023/01/05 00:09:42;;;;;;;303.98;140.32;;;1.40;99.90;;;;;;5058016;28;20025;-91
2023/01/05 00:23:07;;;;;;;378.50;179.27;;;1.20;99.90;;;;;;5037629;28;20509;-91
2023/01/05 00:25:37;;;;;;;372.85;176.50;;;1.20;99.90;;;;;;5037644;28;20040;-91
2023/01/05 00:28:07;;;;;;;350.45;158.98;;;1.10;99.90;;;;;;5037506;28;20025;-91
2023/01/05 00:30:45;;;;;;;352.50;163.23;;;1.10;99.90;;;;;;5040989;28;20040;-91
2023/01/05 00:33:13;;;;;;;401.17;178.07;;;1.20;99.90;;;;;;5041267;28;20025;-91
2023/01/05 00:35:39;;;;;;;351.63;156.38;;;1.40;99.90;;;;;;5040979;28;20085;-90
2023/01/05 00:38:07;;;;;;;314.80;144.80;;;1.40;99.90;;;;;;5041009;28;20039;-91
2023/01/05 00:40:34;;;;;;;300.50;143.55;;;1.40;99.90;;;;;;5042406;28;20135;-91
2023/01/05 00:43:00;;;;;;;351.08;159.80;;;1.30;99.90;;;;;;5044637;28;20029;-91
2023/01/05 00:45:26;;;;;;;378.42;171.75;;;1.20;99.90;;;;;;5044542;28;20098;-90
2023/01/05 00:47:53;;;;;;;368.08;163.85;;;1.10;99.90;;;;;;5044486;28;20044;-91
2023/01/05 00:50:21;;;;;;;426.35;188.90;;;1.00;99.90;;;;;;5044748;28;20063;-91
2023/01/05 00:52:47;;;;;;;420.48;192.30;;;1.00;99.90;;;;;;5044779;28;20115;-91
2023/01/05 00:55:14;;;;;;;450.98;201.60;;;1.10;99.90;;;;;;5044497;28;20036;-91
2023/01/05 00:57:40;;;;;;;384.80;171.77;;;1.20;99.90;;;;;;5044436;28;20029;-91
2023/01/05 01:00:16;;;;;;;344.23;153.52;;;1.20;99.90;;;;;;5044545;28;20029;-91
2023/01/05 01:02:42;;;;;;;363.45;158.77;;;1.20;99.90;;;;;;5044427;28;20028;-91
2023/01/05 01:05:09;;;;;;;361.45;160.80;;;1.20;99.90;;;;;;5044283;28;20037;-91
2023/01/05 01:07:35;;;;;;;392.42;168.40;;;1.10;99.90;;;;;;5044006;28;20035;-90
2023/01/05 01:10:04;;;;;;;401.38;176.55;;;1.00;99.90;;;;;;5044538;28;20029;-91
2023/01/05 01:12:30;;;;;;;421.50;182.50;;;1.00;99.90;;;;;;5043944;28;20130;-91
2023/01/05 01:14:56;;;;;;;410.98;177.52;;;1.10;99.90;;;;;;5044124;28;20032;-91
2023/01/05 01:17:22;;;;;;;402.15;177.30;;;1.20;99.90;;;;;;5043906;28;20035;-91
2023/01/05 01:19:48;;;;;;;403.45;179.73;;;1.30;99.90;;;;;;5044047;28;20041;-90
2023/01/05 01:22:14;;;;;;;414.63;193.50;;;1.50;99.90;;;;;;5043765;28;20385;-91
2023/01/05 01:24:41;;;;;;;482.88;223.38;;;1.60;99.90;;;;;;5043931;28;20497;-91
2023/01/05 01:27:06;;;;;;;515.63;243.65;;;1.60;99.90;;;;;;5043711;28;20031;-91
2023/01/05 01:29:32;;;;;;;511.98;248.18;;;1.70;99.90;;;;;;5043856;28;20032;-91
2023/01/05 01:31:58;;;;;;;485.75;231.15;;;1.80;99.90;;;;;;5043412;28;20429;-91
2023/01/05 01:34:25;;;;;;;474.73;216.65;;;1.80;99.90;;;;;;5043718;28;20028;-91
2023/01/05 01:36:54;;;;;;;476.00;225.00;;;1.70;99.90;;;;;;5043624;28;20032;-91
2023/01/05 01:39:22;;;;;;;;;;;1.80;99.90;;;;;;5044472;28;20062;-91
2023/01/05 01:41:53;;;;;;;494.30;224.85;;;1.70;99.90;;;;;;5044432;28;20000;-91
2023/01/05 01:44:55;;;;;;;488.30;221.30;;;1.50;99.90;;;;;;5060119;28;20056;-91
2023/01/05 01:47:38;;;;;;;465.42;214.88;;;1.40;99.90;;;;;;5043709;28;20037;-91
2023/01/05 01:50:16;;;;;;;455.00;206.93;;;1.30;99.90;;;;;;5043510;28;20123;-91
2023/01/05 01:52:46;;;;;;;450.88;208.55;;;1.20;99.90;;;;;;5042544;28;20039;-91
2023/01/05 01:55:13;;;;;;;482.10;219.07;;;1.20;99.90;;;;;;5043751;28;20025;-91
2023/01/05 01:57:40;;;;;;;477.02;210.57;;;1.30;99.90;;;;;;5043128;28;20595;-90
2023/01/05 02:00:08;;;;;;;440.17;199.43;;;1.30;99.90;;;;;;5043331;28;20032;-91
2023/01/05 02:02:47;;;;;;;468.02;215.23;;;1.50;99.90;;;;;;5061043;28;20116;-90
2023/01/05 02:07:47;;;;;;;397.90;174.05;;;1.30;99.90;;;;;;5033114;28;20097;-71
2023/01/05 02:10:17;;;;;;;423.85;192.00;;;1.20;99.90;;;;;;5035911;28;20030;-71
2023/01/05 02:13:00;;;;;;;449.90;203.48;;;1.30;99.90;;;;;;5035944;28;20104;-71
2023/01/05 02:15:35;;;;;;;412.95;184.63;;;1.20;99.90;;;;;;5035831;28;20033;-71
2023/01/05 02:18:12;;;;;;;378.25;173.63;;;1.30;99.90;;;;;;5035391;28;20025;-71
2023/01/05 02:21:01;;;;;;;405.75;178.85;;;1.10;99.90;;;;;;5035776;28;20080;-71
2023/01/05 02:23:46;;;;;;;405.65;175.13;;;1.00;99.90;;;;;;5034241;28;20033;-71
2023/01/05 02:26:31;;;;;;;401.70;179.23;;;0.90;99.90;;;;;;5017772;28;20029;-71
2023/01/05 02:29:20;;;;;;;410.70;186.93;;;0.80;99.90;;;;;;5034261;28;20044;-71
2023/01/05 02:32:11;;;;;;;452.00;192.02;;;0.80;99.90;;;;;;5034102;28;20471;-71
2023/01/05 02:34:52;;;;;;;;;;;0.80;99.90;;;;;;5035929;28;20087;-71
2023/01/05 02:37:26;;;;;;;333.10;144.43;;;0.90;99.90;;;;;;5017469;28;20431;-71
2023/01/05 02:40:09;;;;;;;264.40;122.25;;;1.10;99.90;;;;;;5017719;28;20220;-71
2023/01/05 02:42:40;;;;;;;236.80;106.72;;;1.20;99.90;;;;;;5034081;28;20029;-71
2023/01/05 02:45:08;;;;;;;206.30;98.05;;;1.10;99.90;;;;;;5035266;28;20036;-71
2023/01/05 02:47:44;;;;;;;214.43;100.43;;;1.00;99.90;;;;;;5017410;28;20033;-70
2023/01/05 02:50:34;;;;;;;221.93;103.05;;;0.90;99.90;;;;;;5017401;28;20372;-71
2023/01/05 02:53:22;;;;;;;217.55;100.15;;;0.90;99.90;;;;;;5017257;28;20083;-70
2023/01/05 02:56:02;;;;;;;201.77;90.47;;;1.00;99.90;;;;;;5017270;28;20041;-70
2023/01/05 02:58:34;;;;;;;205.75;98.28;;;0.90;99.90;;;;;;5033669;28;20067;-71
2023/01/05 03:01:06;;;;;;;270.02;123.78;;;1.00;99.90;;;;;;5017069;28;20033;-71
2023/01/05 03:03:56;;;;;;;273.50;125.53;;;0.80;99.90;;;;;;5017143;28;20029;-71
2023/01/05 03:06:32;;;;;;;291.30;129.97;;;0.70;99.90;;;;;;5016855;28;20051;-71
2023/01/05 03:09:01;;;;;;;279.40;129.07;;;0.70;99.90;;;;;;5035301;28;20163;-71
2023/01/05 03:14:35;;;;;;;283.17;130.20;;;0.60;99.90;;;;;;5053711;28;20102;-72
2023/01/05 03:17:07;;;;;;;252.73;117.43;;;0.70;99.90;;;;;;5053005;28;20120;-71
2023/01/05 03:19:35;;;;;;;199.02;88.05;;;0.70;99.90;;;;;;5053010;28;20052;-71
2023/01/05 03:36:56;;;;;;;284.33;129.10;;;0.60;99.90;;;;;;5054339;28;20028;-72
2023/01/05 03:39:25;;;;;;;295.63;132.80;;;0.70;99.90;;;;;;5053004;28;20029;-71
2023/01/05 03:41:53;;;;;;;340.58;152.77;;;0.70;99.90;;;;;;5053050;28;20713;-71
2023/01/05 03:44:21;;;;;;;327.42;145.25;;;0.70;99.90;;;;;;5036306;28;20029;-71
2023/01/05 03:46:47;;;;;;;340.83;151.30;;;0.60;99.90;;;;;;5052945;28;20059;-71
2023/01/05 03:49:13;;;;;;;353.50;161.15;;;0.70;99.90;;;;;;5036382;28;20039;-71
2023/01/05 03:51:39;;;;;;;320.67;141.23;;;0.70;99.90;;;;;;5054181;28;20029;-71
2023/01/05 03:54:05;;;;;;;342.55;145.80;;;0.60;99.90;;;;;;5054036;28;20078;-71
2023/01/05 03:56:32;;;;;;;295.38;132.43;;;0.70;99.90;;;;;;5036355;28;20560;-71
2023/01/05 03:58:58;;;;;;;251.52;115.05;;;0.80;99.90;;;;;;5054012;28;20108;-71
2023/01/05 04:01:25;;;;;;;217.95;93.72;;;0.90;99.90;;;;;;5036241;28;20120;-71
2023/01/05 04:03:52;;;;;;;200.57;89.63;;;0.90;99.90;;;;;;5036154;28;20056;-71
2023/01/05 04:06:18;;;;;;;192.48;85.38;;;0.90;99.90;;;;;;5035944;28;20131;-71
2023/01/05 04:08:44;;;;;;;195.55;88.60;;;0.80;99.90;;;;;;5054048;28;20029;-71
2023/01/05 04:11:18;;;;;;;210.85;92.55;;;0.70;99.90;;;;;;5036394;28;20032;-71
2023/01/05 04:13:52;;;;;;;235.73;104.38;;;0.70;99.90;;;;;;5053989;28;20036;-71
2023/01/05 04:16:18;;;;;;;213.10;102.03;;;0.70;99.90;;;;;;5055340;28;20436;-71
2023/01/05 04:18:45;;;;;;;236.02;104.50;;;0.70;99.90;;;;;;5039832;28;20394;-71
2023/01/05 04:21:13;;;;;;;208.20;99.47;;;0.70;99.90;;;;;;5056505;28;20030;-71
2023/01/05 04:23:39;;;;;;;239.02;107.75;;;0.70;99.90;;;;;;5040059;28;20040;-71
2023/01/05 04:26:05;;;;;;;213.70;94.65;;;0.70;99.90;;;;;;5056298;28;20181;-71
2023/01/05 04:28:32;;;;;;;257.65;94.55;;;0.60;99.90;;;;;;5056365;28;20036;-71
2023/01/05 04:30:58;;;;;;;193.60;84.63;;;0.60;99.90;;;;;;5057723;28;20462;-72
2023/01/05 04:33:25;;;;;;;175.38;78.00;;;0.70;99.90;;;;;;5039661;28;20124;-71
2023/01/05 04:35:53;;;;;;;218.88;102.10;;;0.80;99.90;;;;;;5056305;28;20504;-71
2023/01/05 04:38:19;;;;;;;226.82;106.10;;;0.90;99.90;;;;;;5039798;28;20037;-71
2023/01/05 04:40:49;;;;;;;249.43;108.90;;;0.90;99.90;;;;;;5056230;28;20025;-71
2023/01/05 04:43:16;;;;;;;206.93;96.07;;;0.90;99.90;;;;;;5056325;28;20561;-72
2023/01/05 04:45:46;;;;;;;209.23;98.70;;;0.80;99.90;;;;;;5039483;28;20036;-71
2023/01/05 04:48:13;;;;;;;174.95;84.32;;;0.70;99.90;;;;;;5056123;28;20028;-71
2023/01/05 04:50:39;;;;;;;187.18;89.47;;;0.70;99.90;;;;;;5039750;28;20021;-71
2023/01/05 04:53:07;;;;;;;207.27;95.53;;;0.70;99.90;;;;;;5039500;28;20036;-71
2023/01/05 04:55:35;;;;;;;212.40;98.45;;;0.50;99.90;;;;;;5055861;28;20033;-71
2023/01/05 04:58:02;;;;;;;205.77;89.55;;;0.60;99.90;;;;;;5056088;28;20512;-71
2023/01/05 05:00:31;;;;;;;212.80;98.38;;;0.60;99.90;;;;;;5039236;28;20025;-71
2023/01/05 05:02:58;;;;;;;218.18;101.55;;;0.60;99.90;;;;;;5039201;28;20025;-71
2023/01/05 05:05:24;;;;;;;214.63;96.78;;;0.50;99.90;;;;;;5057022;28;20216;-71
2023/01/05 05:07:53;;;;;;;202.60;94.05;;;0.50;99.90;;;;;;5039095;28;20033;-71
2023/01/05 05:10:20;;;;;;;206.48;95.32;;;0.50;99.90;;;;;;5039093;28;20029;-71
2023/01/05 05:12:47;;;;;;;214.57;102.47;;;0.50;99.90;;;;;;5038964;28;20025;-71
2023/01/05 05:15:13;;;;;;;238.07;107.65;;;0.70;99.90;;;;;;5055886;28;20083;-71
2023/01/05 05:17:43;;;;;;;;;;;0.70;99.90;;;;;;5055934;28;20493;-71
2023/01/05 05:20:12;;;;;;;243.10;109.72;;;0.80;99.90;;;;;;5056680;28;19909;-71
2023/01/05 05:22:38;;;;;;;256.95;113.80;;;0.70;99.90;;;;;;5055328;28;20033;-71
2023/01/05 05:25:05;;;;;;;230.18;105.40;;;0.70;99.90;;;;;;5055270;28;20506;-71
2023/01/05 05:27:31;;;;;;;225.88;103.80;;;0.60;99.90;;;;;;5054231;28;20032;-71
2023/01/05 05:29:57;;;;;;;239.95;101.28;;;0.50;99.90;;;;;;5056420;28;20017;-71
2023/01/05 05:32:23;;;;;;;234.35;108.18;;;0.60;99.90;;;;;;5056602;28;20395;-71
2023/01/05 05:34:49;;;;;;;235.73;103.47;;;0.50;99.90;;;;;;5056428;28;20041;-71
2023/01/05 05:37:15;;;;;;;240.05;104.10;;;0.50;99.90;;;;;;5056545;28;20048;-71
2023/01/05 05:39:41;;;;;;;222.27;103.55;;;0.40;99.90;;;;;;5056571;28;20036;-71
2023/01/05 05:42:07;;;;;;;213.82;98.25;;;0.30;99.90;;;;;;5056440;28;20366;-71
2023/01/05 05:44:32;;;;;;;205.90;98.63;;;0.50;99.90;;;;;;5056133;28;20363;-71
2023/01/05 05:46:59;;;;;;;228.38;104.60;;;0.50;99.90;;;;;;5056448;28;20112;-71
2023/01/05 05:49:24;;;;;;;248.32;112.68;;;0.60;99.90;;;;;;5056367;28;20021;-71
2023/01/05 05:51:50;;;;;;;225.60;106.45;;;0.50;99.90;;;;;;5056188;28;20192;-71
2023/01/05 05:54:16;;;;;;;254.32;113.82;;;0.60;99.90;;;;;;5056177;28;20025;-72
2023/01/05 05:56:42;;;;;;;239.40;111.82;;;0.70;99.90;;;;;;5056259;28;20077;-71
2023/01/05 05:59:08;;;;;;;268.92;114.68;;;0.90;99.90;;;;;;5056010;28;20032;-71
2023/01/05 06:01:34;;;;;;;239.07;102.57;;;0.90;99.90;;;;;;5055998;28;20135;-71
2023/01/05 06:04:00;;;;;;;272.42;128.52;;;0.90;99.90;;;;;;5056235;28;20052;-71
2023/01/05 06:06:26;;;;;;;257.90;120.78;;;1.10;99.90;;;;;;5055659;28;20122;-71
2023/01/05 06:08:52;;;;;;;244.10;110.45;;;0.90;99.90;;;;;;5055834;28;20029;-71
2023/01/05 06:11:18;;;;;;;246.25;107.88;;;0.80;99.90;;;;;;5055625;28;20029;-71
2023/01/05 06:13:44;;;;;;;225.32;107.10;;;0.80;99.90;;;;;;5055729;28;20047;-72
2023/01/05 06:16:10;;;;;;;242.25;110.45;;;0.80;99.90;;;;;;5055731;28;20055;-71
2023/01/05 06:18:36;;;;;;;257.67;119.35;;;0.70;99.90;;;;;;5055263;28;20021;-71
2023/01/05 06:21:10;;;;;;;243.23;111.15;;;0.50;99.90;;;;;;5055521;28;20029;-72
2023/01/05 06:23:36;;;;;;;232.75;109.93;;;0.50;99.90;;;;;;5055160;28;20024;-71
2023/01/05 06:26:02;;;;;;;232.30;102.32;;;0.40;99.90;;;;;;5055510;28;20086;-71
2023/01/05 06:28:31;;;;;;;219.30;100.93;;;0.40;99.90;;;;;;5075038;28;20035;-71
2023/01/05 06:30:57;;;;;;;211.23;97.63;;;0.40;99.90;;;;;;5062490;28;20070;-71
2023/01/05 06:33:23;;;;;;;218.13;102.20;;;0.30;99.90;;;;;;5053228;28;20463;-71
2023/01/05 06:35:49;;;;;;;206.15;96.35;;;0.20;99.90;;;;;;5053484;28;20033;-71
2023/01/05 06:38:16;;;;;;;221.77;102.88;;;0.30;99.90;;;;;;5052514;28;20112;-71
2023/01/05 06:40:45;;;;;;;230.60;103.28;;;0.50;99.90;;;;;;5069261;28;20032;-71
2023/01/05 06:43:11;;;;;;;229.32;106.55;;;0.60;99.90;;;;;;5075304;28;20393;-71
2023/01/05 06:45:37;;;;;;;209.05;94.10;;;0.70;99.90;;;;;;5075112;28;20020;-71
2023/01/05 06:48:04;;;;;;;229.35;98.90;;;0.80;99.90;;;;;;5074734;28;20028;-71
2023/01/05 06:50:30;;;;;;;222.32;101.57;;;0.80;99.90;;;;;;5074902;28;20055;-71
2023/01/05 06:52:57;;;;;;;231.60;101.30;;;0.90;99.90;;;;;;5052394;28;20284;-71
2023/01/05 06:55:23;;;;;;;206.48;87.95;;;1.10;99.90;;;;;;5053316;28;20112;-70
2023/01/05 06:57:49;;;;;;;184.68;87.78;;;1.20;99.90;;;;;;5051473;28;20033;-71
2023/01/05 07:00:16;;;;;;;179.05;81.72;;;1.30;99.90;;;;;;5055265;28;20028;-71
2023/01/05 07:02:43;;;;;;;169.32;76.97;;;1.20;99.90;;;;;;5055554;28;20025;-71
2023/01/05 07:05:09;;;;;;;171.02;74.50;;;1.40;99.90;;;;;;5056621;28;20047;-71
2023/01/05 07:07:36;;;;;;;156.00;69.50;;;1.40;99.90;;;;;;5052912;28;20124;-71
2023/01/05 07:10:02;;;;;;;151.45;68.85;;;1.40;99.90;;;;;;5053392;28;20051;-71
2023/01/05 07:12:28;;;;;;;164.95;72.25;;;1.40;99.90;;;;;;5053537;28;20471;-71
2023/01/05 07:14:54;;;;;;;161.25;72.70;;;1.50;99.90;;;;;;5051658;28;20063;-71
2023/01/05 07:17:20;;;;;;;168.90;75.72;;;2.10;99.90;;;;;;5055353;28;20542;-72
2023/01/05 07:19:46;;;;;;;194.18;79.40;;;2.50;99.90;;;;;;5059679;28;20032;-71
2023/01/05 07:22:12;;;;;;;180.02;83.38;;;3.20;99.90;;;;;;5056953;28;20387;-71
2023/01/05 07:24:38;;;;;;;200.25;92.70;;;3.90;99.90;;;;;;5061590;28;20029;-71
2023/01/05 07:27:04;;;;;;;167.05;69.45;;;4.60;99.90;;;;;;5063862;28;20436;-71
2023/01/05 07:29:33;;;;;;;130.77;61.97;;;5.00;99.90;;;;;;5063356;28;20040;-71
2023/01/05 07:31:59;;;;;;;135.05;59.15;;;5.10;99.90;;;;;;5063789;28;20021;-71
2023/01/05 07:34:26;;;;;;;127.10;59.25;;;5.20;99.90;;;;;;5064062;28;20045;-71
2023/01/05 07:36:51;;;;;;;126.80;60.67;;;4.90;99.90;;;;;;5054342;28;20488;-71
2023/01/05 07:39:18;;;;;;;139.15;62.42;;;4.70;99.90;;;;;;5058735;28;20017;-71
2023/01/05 07:41:47;;;;;;;144.48;65.28;;;4.90;99.90;;;;;;5053860;28;20032;-71
2023/01/05 07:44:15;;;;;;;137.13;66.18;;;4.70;99.90;;;;;;5055991;28;20474;-71
2023/01/05 07:46:44;;;;;;;140.95;65.22;;;4.40;99.90;;;;;;5069457;28;20419;-71
2023/01/05 07:49:10;;;;;;;168.00;73.47;;;4.20;99.90;;;;;;5062585;28;20075;-71
2023/01/05 07:51:36;;;;;;;163.57;75.63;;;4.30;99.90;;;;;;5056835;28;20465;-71
2023/01/05 07:54:02;;;;;;;164.45;77.35;;;4.20;99.90;;;;;;5062083;28;20029;-71
2023/01/05 07:56:28;;;;;;;158.07;72.38;;;3.90;99.90;;;;;;5063697;28;20029;-72
2023/01/05 07:58:54;;;;;;;161.15;77.82;;;4.00;99.90;;;;;;5058242;28;20033;-72
2023/01/05 08:01:20;;;;;;;186.82;86.25;;;3.90;99.90;;;;;;5053820;28;20029;-72
2023/01/05 08:03:46;;;;;;;175.93;79.10;;;3.60;99.90;;;;;;5054613;28;20398;-72
2023/01/05 08:06:17;;;;;;;173.80;82.13;;;3.40;99.90;;;;;;5058053;28;20041;-71
2023/01/05 08:08:44;;;;;;;178.38;81.00;;;3.50;99.90;;;;;;5053338;28;20032;-71
2023/01/05 08:11:14;;;;;;;174.52;78.47;;;3.70;99.90;;;;;;5052698;28;20037;-72
2023/01/05 08:14:14;;;;;;;199.98;87.50;;;3.70;99.90;;;;;;5063319;28;20052;-71
2023/01/05 08:16:33;;;;;;;267.95;108.95;;;3.80;99.90;;;;;;5057065;28;20630;-71
2023/01/05 08:18:59;;;;;;;419.58;166.32;;;4.20;99.90;;;;;;5073819;28;20013;-71
2023/01/05 08:21:26;;;;;;;322.30;139.52;;;4.40;99.90;;;;;;5073546;28;20470;-71
2023/01/05 08:23:52;;;;;;;308.25;131.23;;;5.10;99.90;;;;;;5072648;28;20016;-70
2023/01/05 08:26:21;;;;;;;209.68;105.03;;;6.20;99.90;;;;;;5059982;28;20152;-70
2023/01/05 08:28:47;;;;;;;238.80;111.38;;;6.70;99.90;;;;;;5054419;28;20017;-71
2023/01/05 08:31:25;;;;;;;262.23;121.63;;;7.00;99.70;;;;;;5067589;28;20093;-71
2023/01/05 08:33:54;;;;;;;268.48;125.18;;;7.40;99.90;;;;;;5072582;28;20100;-70
2023/01/05 08:36:20;;;;;;;265.27;124.03;;;8.70;99.50;;;;;;5072205;28;20162;-70
2023/01/05 08:38:50;;;;;;;270.30;123.95;;;9.30;92.30;;;;;;5071909;28;20037;-70
2023/01/05 08:41:18;;;;;;;282.00;129.05;;;9.50;93.70;;;;;;5065070;28;20028;-70
2023/01/05 08:43:52;;;;;;;264.83;127.38;;;9.90;91.70;;;;;;5053152;28;20100;-70
2023/01/05 08:46:20;;;;;;;221.80;109.05;;;10.60;87.60;;;;;;5053127;28;20120;-70
2023/01/05 08:48:50;;;;;;;278.52;132.60;;;11.10;84.70;;;;;;5051745;28;20500;-70
2023/01/05 08:51:17;;;;;;;271.63;130.23;;;11.00;80.80;;;;;;5053315;28;20053;-70
2023/01/05 08:53:43;;;;;;;328.00;157.70;;;11.70;80.10;;;;;;5053214;28;20118;-70
2023/01/05 08:56:09;;;;;;;363.75;177.18;;;12.30;76.50;;;;;;5052866;28;20110;-71
2023/01/05 08:58:36;;;;;;;341.15;166.63;;;12.50;73.70;;;;;;5053232;28;20155;-71
2023/01/05 09:01:07;;;;;;;322.70;168.30;;;12.90;72.70;;;;;;5071865;28;20845;-71
2023/01/05 09:03:33;;;;;;;290.48;150.55;;;12.60;72.40;;;;;;5076733;28;20147;-71
2023/01/05 09:06:01;;;;;;;300.08;153.05;;;13.20;70.70;;;;;;5075976;28;20056;-71
2023/01/05 09:08:28;;;;;;;264.25;136.73;;;13.10;66.90;;;;;;5076473;28;20509;-71
2023/01/05 09:10:54;;;;;;;267.30;137.65;;;13.20;70.90;;;;;;5076487;28;20024;-71
2023/01/05 09:13:20;;;;;;;274.38;139.77;;;13.30;67.80;;;;;;5076554;28;20104;-71
2023/01/05 09:15:46;;;;;;;280.55;143.45;;;13.60;68.30;;;;;;5076338;28;20032;-71
2023/01/05 09:18:12;;;;;;;273.45;136.60;;;13.40;69.00;;;;;;5076439;28;20135;-71
2023/01/05 09:20:38;;;;;;;249.90;132.10;;;13.00;71.20;;;;;;5076881;28;20047;-71
2023/01/05 09:23:04;;;;;;;253.77;133.18;;;14.10;66.80;;;;;;5076609;28;20028;-71
2023/01/05 09:25:32;;;;;;;249.55;126.35;;;14.00;66.80;;;;;;5072920;28;20490;-71
2023/01/05 09:27:58;;;;;;;231.07;123.38;;;14.40;66.50;;;;;;5075497;28;20024;-71
2023/01/05 09:30:24;;;;;;;224.88;123.10;;;13.60;67.10;;;;;;5067614;28;20548;-71
2023/01/05 09:32:50;;;;;;;220.52;118.25;;;14.70;65.00;;;;;;5057353;28;20100;-71
2023/01/05 09:35:19;;;;;;;228.00;128.30;;;15.60;61.90;;;;;;5054886;28;20036;-71
2023/01/05 09:37:48;;;;;;;239.95;132.07;;;15.50;61.10;;;;;;5055555;28;20025;-71
2023/01/05 09:40:14;;;;;;;249.68;132.25;;;15.80;60.90;;;;;;5056170;28;20025;-72
2023/01/05 09:42:44;;;;;;;231.55;126.20;;;16.20;58.80;;;;;;5055592;28;20036;-72
2023/01/05 09:45:12;;;;;;;228.77;124.63;;;15.60;59.50;;;;;;5054195;28;20043;-73
2023/01/05 09:47:43;;;;;;;227.48;120.65;;;15.80;59.90;;;;;;5060361;28;20096;-73
2023/01/05 09:50:19;;;;;;;227.77;123.10;;;15.90;59.00;;;;;;5056025;28;20036;-73
2023/01/05 09:52:46;;;;;;;216.20;116.50;;;16.70;58.80;;;;;;5055276;28;20036;-73
2023/01/05 09:55:24;;;;;;;218.00;113.55;;;17.10;58.00;;;;;;5055073;28;20048;-72
2023/01/05 09:57:58;;;;;;;204.65;113.35;;;17.90;55.40;;;;;;5055720;28;20075;-72
2023/01/05 10:00:25;;;;;;;201.43;111.32;;;17.40;56.40;;;;;;5055065;28;20116;-72
2023/01/05 10:02:54;;;;;;;193.00;102.72;;;18.10;54.10;;;;;;5053741;28;20033;-72
2023/01/05 10:05:21;;;;;;;201.38;111.28;;;17.90;55.20;;;;;;5054192;28;20041;-72
2023/01/05 10:08:02;;;;;;;213.48;115.13;;;18.50;54.10;;;;;;5051594;28;20482;-72
2023/01/05 10:10:37;;;;;;;183.75;99.10;;;19.00;52.40;;;;;;5054951;28;20036;-72
2023/01/05 10:13:06;;;;;;;168.30;97.47;;;19.00;51.00;;;;;;5069896;28;20801;-72
2023/01/05 10:15:37;;;;;;;174.10;95.53;;;19.50;49.50;;;;;;5057404;28;20049;-73
2023/01/05 10:18:17;;;;;;;149.23;88.32;;;19.30;49.60;;;;;;5074081;28;20024;-73
2023/01/05 10:20:51;;;;;;;141.33;82.10;;;19.50;49.30;;;;;;5057876;28;20417;-73
2023/01/05 10:23:32;;;;;;;133.85;77.80;;;19.50;49.50;;;;;;5054167;28;20063;-73
2023/01/05 10:26:18;;;;;;;;;;;18.90;50.60;;;;;;5055937;28;20513;-73
2023/01/05 10:28:58;;;;;;;125.07;66.40;;;19.00;50.20;;;;;;5073417;28;19948;-73
2023/01/05 10:31:24;;;;;;;109.53;60.03;;;18.20;50.30;;;;;;5060710;28;20029;-73
2023/01/05 10:33:55;;;;;;;103.93;56.65;;;17.50;52.60;;;;;;5036561;28;20441;-73
2023/01/05 10:36:21;;;;;;;89.18;46.53;;;17.20;54.80;;;;;;5055321;28;20024;-73
2023/01/05 10:38:58;;;;;;;84.68;46.42;;;17.60;53.10;;;;;;5054852;28;20025;-73
2023/01/05 10:41:38;;;;;;;92.68;49.42;;;17.50;53.40;;;;;;5053551;28;20076;-73
2023/01/05 10:44:42;;;;;;;82.15;47.40;;;17.30;55.20;;;;;;5055011;28;20116;-73
2023/01/05 10:47:12;;;;;;;66.13;41.33;;;17.80;54.20;;;;;;5055639;28;20036;-71
2023/01/05 10:49:42;;;;;;;130.48;47.67;;;17.90;53.80;;;;;;5055701;28;20033;-72
2023/01/05 10:52:13;;;;;;;77.63;39.63;;;18.00;53.10;;;;;;5055895;28;20375;-73
2023/01/05 10:54:55;;;;;;;68.72;35.72;;;18.10;52.70;;;;;;5055464;28;20393;-73
2023/01/05 10:57:37;;;;;;;65.97;38.92;;;17.70;53.60;;;;;;5055472;28;20033;-73
2023/01/05 11:00:13;;;;;;;70.25;39.72;;;17.30;55.00;;;;;;5055258;28;20791;-73
2023/01/05 11:02:57;;;;;;;78.70;40.15;;;17.40;55.20;;;;;;5055320;28;20029;-73
2023/01/05 11:05:36;;;;;;;73.68;40.55;;;17.40;55.00;;;;;;5055241;28;20029;-73
2023/01/05 11:08:13;;;;;;;97.00;44.58;;;17.50;54.90;;;;;;5035347;28;20048;-73
2023/01/05 11:10:47;;;;;;;82.65;42.30;;;17.80;54.40;;;;;;5048057;28;20024;-72
2023/01/05 11:13:38;;;;;;;83.70;43.08;;;17.80;53.70;;;;;;5075418;28;20020;-73
2023/01/05 11:16:20;;;;;;;83.22;45.47;;;17.40;54.80;;;;;;5074170;28;20036;-73
2023/01/05 11:18:55;;;;;;;82.93;43.58;;;17.70;54.80;;;;;;5074998;28;20029;-73
2023/01/05 11:21:24;;;;;;;77.38;45.10;;;17.50;54.50;;;;;;5075297;28;20390;-73
2023/01/05 11:23:52;;;;;;;80.72;45.15;;;17.70;54.30;;;;;;5073984;28;20549;-73
2023/01/05 11:26:20;;;;;;;86.38;43.92;;;17.30;54.70;;;;;;5056448;28;20533;-73
2023/01/05 11:29:18;;;;;;;79.10;42.58;;;17.70;54.00;;;;;;5056032;28;20021;-73
2023/01/05 11:32:04;;;;;;;75.72;41.63;;;18.00;54.00;;;;;;5052279;28;20120;-73
2023/01/05 11:34:48;;;;;;;95.70;44.90;;;18.00;53.70;;;;;;5053721;28;20094;-73
2023/01/05 11:37:27;;;;;;;74.78;40.15;;;18.50;52.10;;;;;;5054157;28;20061;-73
2023/01/05 11:40:01;;;;;;;82.50;41.72;;;18.50;50.80;;;;;;5054069;28;20028;-73
2023/01/05 11:42:35;;;;;;;69.57;39.67;;;18.40;50.60;;;;;;5054044;28;20036;-73
2023/01/05 11:45:12;;;;;;;81.32;39.78;;;17.40;52.60;;;;;;5053658;28;20068;-73
2023/01/05 11:48:02;;;;;;;58.95;29.55;;;17.90;53.30;;;;;;5053961;28;20116;-73
2023/01/05 11:50:33;;;;;;;77.82;37.65;;;18.40;48.80;;;;;;5052139;28;20029;-73
2023/01/05 11:53:01;;;;;;;78.00;39.03;;;18.30;49.60;;;;;;5050081;28;20027;-73
2023/01/05 11:55:30;;;;;;;96.55;39.15;;;18.60;49.90;;;;;;5067558;28;20082;-73
2023/01/05 11:58:19;;;;;;;81.40;36.60;;;18.40;49.90;;;;;;5051045;28;20021;-73
2023/01/05 12:01:03;;;;;;;63.65;29.95;;;19.10;49.40;;;;;;5053087;28;20029;-73
2023/01/05 12:03:52;;;;;;;68.45;33.65;;;19.40;47.70;;;;;;5054121;28;20032;-73
2023/01/05 12:06:24;;;;;;;88.28;42.88;;;19.60;46.50;;;;;;5053639;28;20490;-73
2023/01/05 12:09:14;;;;;;;86.47;43.20;;;20.10;46.70;;;;;;5053552;28;20067;-73
2023/01/05 12:12:09;;;;;;;82.20;44.85;;;20.40;46.00;;;;;;5053904;28;20029;-73
2023/01/05 12:14:38;;;;;;;71.80;43.15;;;20.70;45.40;;;;;;5052615;28;20394;-73
2023/01/05 12:17:15;;;;;;;95.63;51.78;;;21.00;44.40;;;;;;5053665;28;20036;-73
2023/01/05 12:19:55;;;;;;;98.88;53.75;;;20.00;47.30;;;;;;5053742;28;20025;-73
2023/01/05 12:22:36;;;;;;;97.13;57.60;;;19.90;48.80;;;;;;5053204;28;20492;-73
2023/01/05 12:25:35;;;;;;;97.68;56.28;;;19.80;49.80;;;;;;5053610;28;20028;-73
2023/01/05 12:28:12;;;;;;;100.75;54.85;;;19.70;49.50;;;;;;5052890;28;20096;-73
2023/01/05 12:31:09;;;;;;;92.68;53.45;;;19.70;48.60;;;;;;5054012;28;20437;-73
2023/01/05 12:33:52;;;;;;;102.05;52.72;;;19.30;49.60;;;;;;5053517;28;20028;-73
2023/01/05 12:36:39;;;;;;;93.40;50.50;;;19.50;50.10;;;;;;5054960;28;20044;-73
2023/01/05 12:39:30;;;;;;;86.35;48.90;;;19.90;48.60;;;;;;5057246;28;20032;-73
2023/01/05 12:42:15;;;;;;;;;;;20.00;47.20;;;;;;5057672;28;20033;-73
2023/01/05 12:45:18;;;;;;;84.00;45.55;;;19.80;46.60;;;;;;5055055;28;19959;-73
2023/01/05 12:48:08;;;;;;;79.00;42.67;;;20.40;47.10;;;;;;5037371;28;20026;-73
2023/01/05 12:50:55;;;;;;;79.45;42.78;;;20.50;46.10;;;;;;5040701;28;20040;-73
2023/01/05 12:53:36;;;;;;;95.85;44.30;;;19.90;46.70;;;;;;5056987;28;20025;-73
2023/01/05 12:56:20;;;;;;;82.95;42.97;;;20.10;46.50;;;;;;5056869;28;20478;-73
2023/01/05 12:59:13;;;;;;;78.55;40.83;;;20.10;45.90;;;;;;5058338;28;20607;-73
2023/01/05 13:01:54;;;;;;;74.68;42.45;;;19.80;45.80;;;;;;5077211;28;20029;-73
2023/01/05 13:04:48;;;;;;;91.22;43.83;;;19.70;45.90;;;;;;5077493;28;20481;-73
2023/01/05 13:07:25;;;;;;;91.38;45.45;;;19.80;45.90;;;;;;5068997;28;20129;-73
2023/01/05 13:10:02;;;;;;;79.32;43.05;;;19.30;46.50;;;;;;5076699;28;20517;-73
2023/01/05 13:12:28;;;;;;;83.40;44.28;;;19.30;46.70;;;;;;5076962;28;20024;-73
2023/01/05 13:15:15;;;;;;;81.85;44.58;;;18.90;48.70;;;;;;5076738;28;20092;-73